CYUL/YUL METAR and TAF weather

Enter ICAO airport designator
Station Type Date Time Source
CYUL METAR 2021/04/14 20:00 UTC NOAA

CYUL 142000Z VRB02KT 15SM FEW050 SCT085 BKN120 BKN240 17/03 A2991 RMK CF1AC4AC2CI1 CF TR SLP130 DENSITY ALT 500FT


Station Type Date Time Source
CYUL Decoded METAR 2021/04/14 20:00 UTC NOAA

Montreal / Pierre Elliot Trudeau International Airport, Que, Canada (CYUL) 45-28N 073-45W 36M
Apr 14, 2021 - 04:00 PM EDT / 2021.04.14 2000 UTC
Wind: Variable at 2 MPH (2 KT):0
Visibility: 15 mile(s):0
Sky conditions: mostly cloudy
Temperature: 62 F (17 C)
Dew Point: 37 F (3 C)
Relative Humidity: 39%
Pressure (altimeter): 29.91 in. Hg (1012 hPa)
ob: CYUL 142000Z VRB02KT 15SM FEW050 SCT085 BKN120 BKN240 17/03 A2991 RMK CF1AC4AC2CI1 CF TR SLP130 DENSITY ALT 500FT
cycle: 20

Station Type Date Time Source
CYUL TAF 2021/04/14 18:42 UTC NOAA

TAF CYUL 141738Z 1418/1518 03005KT P6SM SCT070 BKN150
TEMPO 1418/1423 P6SM VCTS BKN070CB BKN150
BECMG 1418/1420 09007KT
FM142300 09007KT P6SM SCT070 BKN150
TEMPO 1423/1510 BKN070 BKN150
BECMG 1500/1502 VRB03KT
FM151000 04008KT P6SM OVC070
TEMPO 1510/1512 6SM -SHRA BR BKN012
FM151200 02006KT P6SM -RA SCT008 OVC015
FM151500 06008KT 6SM -RA BR OVC004
BECMG 1516/1518 12015G25KT
RMK NXT FCST BY 142100Z

Example: see airport list